createdAt,value
2023-05-06T00:01:05.575Z,6.80
2023-05-06T00:03:35.307Z,6.40
2023-05-06T00:06:06.809Z,6.70
2023-05-06T00:08:36.732Z,6.70
2023-05-06T00:11:06.115Z,6.20
2023-05-06T00:13:37.248Z,6.50
2023-05-06T00:16:07.584Z,6.50
2023-05-06T00:18:37.182Z,6.00
2023-05-06T00:21:07.452Z,5.60
2023-05-06T00:23:36.914Z,5.60
2023-05-06T00:26:07.441Z,6.10
2023-05-06T00:28:37.081Z,5.60
2023-05-06T00:31:06.824Z,5.50
2023-05-06T00:33:36.966Z,5.60
2023-05-06T00:36:07.386Z,5.60
2023-05-06T00:38:37.162Z,5.20
2023-05-06T00:41:07.844Z,5.60
2023-05-06T00:43:37.983Z,5.70
2023-05-06T00:46:09.671Z,5.40
2023-05-06T00:48:40.197Z,5.40
2023-05-06T00:51:10.070Z,5.40
2023-05-06T00:53:40.064Z,5.20
2023-05-06T00:56:09.893Z,5.20
2023-05-06T00:58:41.049Z,5.60
2023-05-06T01:01:10.963Z,5.10
2023-05-06T01:03:40.760Z,5.40
2023-05-06T01:06:18.264Z,5.70
2023-05-06T01:08:57.654Z,5.20
2023-05-06T01:11:37.387Z,5.50
2023-05-06T01:14:13.971Z,5.30
2023-05-06T01:16:44.087Z,5.60
2023-05-06T01:19:34.881Z,5.40
2023-05-06T01:22:06.978Z,4.90
2023-05-06T01:24:37.714Z,5.60
2023-05-06T01:27:12.598Z,4.90
2023-05-06T01:29:47.778Z,5.10
2023-05-06T01:32:41.495Z,5.60
2023-05-06T01:35:22.203Z,5.30
2023-05-06T01:38:13.675Z,5.20
2023-05-06T01:40:44.518Z,5.50
2023-05-06T01:43:18.090Z,5.30
2023-05-06T01:45:54.385Z,5.60
2023-05-06T01:48:26.610Z,5.60
2023-05-06T01:50:56.109Z,5.80
2023-05-06T01:53:25.815Z,5.20
2023-05-06T01:55:56.549Z,5.40
2023-05-06T01:58:26.388Z,5.40
2023-05-06T02:00:55.657Z,5.50
2023-05-06T02:03:25.298Z,5.50
2023-05-06T02:05:55.044Z,5.40
2023-05-06T02:08:24.871Z,5.30
2023-05-06T02:10:54.409Z,5.10
2023-05-06T02:13:23.956Z,5.20
2023-05-06T02:15:55.146Z,5.20
2023-05-06T02:18:25.334Z,4.90
2023-05-06T02:20:54.511Z,5.60
2023-05-06T02:23:24.948Z,5.40
2023-05-06T02:25:54.286Z,5.10
2023-05-06T02:28:23.703Z,5.20
2023-05-06T02:30:57.232Z,5.30
2023-05-06T02:33:26.684Z,5.70
2023-05-06T02:35:56.532Z,5.20
2023-05-06T02:38:26.444Z,4.90
2023-05-06T02:40:55.730Z,5.20
2023-05-06T02:43:25.532Z,4.70
2023-05-06T02:45:56.679Z,5.00
2023-05-06T02:48:26.535Z,5.20
2023-05-06T02:50:56.247Z,5.20
2023-05-06T02:53:26.155Z,5.20
2023-05-06T02:55:55.648Z,5.50
2023-05-06T02:58:25.839Z,5.00
2023-05-06T03:00:55.199Z,4.90
2023-05-06T03:03:24.516Z,4.70
2023-05-06T03:05:54.565Z,5.20
2023-05-06T03:08:24.455Z,4.90
2023-05-06T03:10:54.295Z,5.20
2023-05-06T03:13:24.559Z,5.10
2023-05-06T03:15:54.445Z,4.70
2023-05-06T03:18:24.421Z,4.70
2023-05-06T03:20:53.515Z,4.70
2023-05-06T03:23:23.592Z,5.00
2023-05-06T03:25:53.499Z,5.40
2023-05-06T03:28:22.780Z,5.70
2023-05-06T03:30:52.193Z,5.70
2023-05-06T03:33:22.612Z,5.00
2023-05-06T03:35:52.541Z,5.80
2023-05-06T03:38:22.413Z,4.90
2023-05-06T03:40:51.904Z,5.40
2023-05-06T03:43:22.234Z,5.50
2023-05-06T03:45:54.325Z,5.40
2023-05-06T03:48:24.585Z,5.00
2023-05-06T03:50:54.481Z,5.20
2023-05-06T03:53:24.898Z,5.20
2023-05-06T03:55:59.512Z,5.00
2023-05-06T03:58:30.762Z,5.20
2023-05-06T04:01:08.169Z,5.60
2023-05-06T04:04:08.232Z,5.60
2023-05-06T04:07:18.177Z,5.40
2023-05-06T04:10:13.299Z,5.50
2023-05-06T04:12:45.054Z,5.00
2023-05-06T04:15:16.100Z,5.40
2023-05-06T04:17:45.552Z,4.90
2023-05-06T04:20:16.479Z,5.30
2023-05-06T04:22:50.563Z,5.50
2023-05-06T04:25:20.796Z,5.70
2023-05-06T04:27:51.500Z,5.70
2023-05-06T04:30:22.377Z,5.40
2023-05-06T04:32:51.733Z,5.00
2023-05-06T04:35:23.181Z,5.20
2023-05-06T04:37:54.843Z,5.20
2023-05-06T04:40:25.990Z,5.90
2023-05-06T04:42:55.571Z,5.10
2023-05-06T04:45:25.838Z,5.40
2023-05-06T04:47:55.692Z,5.00
2023-05-06T04:50:32.169Z,5.10
2023-05-06T04:53:10.855Z,5.70
2023-05-06T04:55:40.762Z,5.20
2023-05-06T04:58:10.708Z,5.10
2023-05-06T05:04:15.424Z,5.00
2023-05-06T05:04:44.582Z,4.70
2023-05-06T05:07:16.238Z,3.80
2023-05-06T05:09:45.401Z,4.60
2023-05-06T05:12:14.630Z,4.70
2023-05-06T05:14:44.155Z,4.80
2023-05-06T05:17:15.240Z,5.30
2023-05-06T05:19:59.087Z,4.40
2023-05-06T05:22:30.701Z,4.70
2023-05-06T05:25:02.596Z,4.10
2023-05-06T05:27:32.508Z,4.50
2023-05-06T05:30:08.609Z,4.60
2023-05-06T05:33:04.843Z,4.60
2023-05-06T05:35:41.826Z,4.60
2023-05-06T05:38:29.717Z,4.50
2023-05-06T05:41:00.194Z,4.80
2023-05-06T05:43:33.139Z,4.70
2023-05-06T05:46:19.436Z,4.50
2023-05-06T05:48:54.208Z,4.80
2023-05-06T05:51:26.110Z,4.90
2023-05-06T05:53:56.190Z,4.30
2023-05-06T05:56:27.112Z,4.60
2023-05-06T05:59:16.131Z,4.70
2023-05-06T06:02:20.644Z,4.10
2023-05-06T06:05:13.204Z,4.80
2023-05-06T06:08:41.892Z,4.40
2023-05-06T06:11:24.966Z,4.00
2023-05-06T06:14:24.490Z,4.00
2023-05-06T06:17:02.878Z,4.10
2023-05-06T06:19:41.855Z,4.20
2023-05-06T06:22:49.145Z,4.40
2023-05-06T06:25:45.034Z,3.80
2023-05-06T06:28:17.919Z,4.50
2023-05-06T06:30:52.017Z,4.40
2023-05-06T06:33:23.381Z,5.20
2023-05-06T06:35:59.242Z,4.50
2023-05-06T06:38:42.358Z,4.60
2023-05-06T06:41:52.408Z,4.40
2023-05-06T06:45:01.343Z,4.70
2023-05-06T06:47:41.937Z,4.40
2023-05-06T06:50:26.474Z,4.50
2023-05-06T06:53:07.086Z,4.20
2023-05-06T06:57:13.231Z,4.20
2023-05-06T06:59:24.525Z,3.90
2023-05-06T07:02:03.036Z,4.20
2023-05-06T07:04:43.828Z,4.40
2023-05-06T07:07:53.056Z,3.80
2023-05-06T07:11:19.050Z,3.40
2023-05-06T07:20:02.236Z,3.70
2023-05-06T07:21:59.479Z,4.00
2023-05-06T07:44:50.169Z,3.80
2023-05-06T07:47:40.176Z,4.00
2023-05-06T07:50:17.762Z,4.10
2023-05-06T07:52:47.151Z,4.10
2023-05-06T07:55:17.649Z,4.50
2023-05-06T07:57:52.582Z,4.30
2023-05-06T08:01:39.439Z,3.80
2023-05-06T08:05:53.728Z,3.60
2023-05-06T08:07:17.384Z,3.30
2023-05-06T08:11:01.032Z,3.60
2023-05-06T08:18:29.083Z,4.30
2023-05-06T08:26:18.324Z,3.30
2023-05-06T08:45:00.062Z,3.50
2023-05-06T08:47:56.010Z,3.90
2023-05-06T08:51:20.807Z,3.60
2023-05-06T08:54:52.561Z,3.40
2023-05-06T08:57:59.650Z,4.00
2023-05-06T09:00:59.021Z,3.60
2023-05-06T09:03:56.875Z,3.30
2023-05-06T09:07:17.417Z,3.50
2023-05-06T09:10:03.543Z,3.50
2023-05-06T09:13:24.349Z,3.40
2023-05-06T09:16:43.937Z,3.80
2023-05-06T09:19:34.350Z,3.60
2023-05-06T09:22:32.198Z,3.40
2023-05-06T09:25:50.753Z,3.50
2023-05-06T09:31:54.035Z,3.40
2023-05-06T09:35:06.776Z,3.80
2023-05-06T09:38:17.074Z,3.60
2023-05-06T09:41:14.789Z,3.30
2023-05-06T09:44:10.245Z,3.40
2023-05-06T09:50:57.131Z,3.80
2023-05-06T09:54:28.113Z,3.50
2023-05-06T09:57:14.585Z,3.80
2023-05-06T10:00:12.626Z,3.70
2023-05-06T10:02:59.412Z,3.20
2023-05-06T10:06:11.201Z,3.20
2023-05-06T10:09:18.502Z,3.00
2023-05-06T10:12:28.570Z,3.10
2023-05-06T10:15:18.183Z,3.20
2023-05-06T10:18:17.289Z,3.10
2023-05-06T10:21:15.724Z,3.50
2023-05-06T10:28:22.987Z,3.30
2023-05-06T10:31:14.377Z,3.00
2023-05-06T10:33:51.165Z,2.70
2023-05-06T10:36:27.328Z,2.80
2023-05-06T10:39:05.034Z,2.80
2023-05-06T10:41:37.801Z,3.20
2023-05-06T10:44:12.923Z,3.10
2023-05-06T10:47:08.662Z,3.00
2023-05-06T10:49:41.645Z,3.10
2023-05-06T10:52:24.870Z,3.10
2023-05-06T10:54:56.843Z,2.70
2023-05-06T10:57:44.792Z,2.80
2023-05-06T11:00:16.691Z,2.70
2023-05-06T11:03:06.973Z,2.90
2023-05-06T11:05:48.833Z,3.20
2023-05-06T11:08:25.690Z,2.50
2023-05-06T11:10:58.129Z,3.10
2023-05-06T11:13:36.737Z,3.00
2023-05-06T11:16:10.651Z,2.90
2023-05-06T11:18:44.802Z,2.70
2023-05-06T11:22:02.285Z,2.90
2023-05-06T11:24:53.796Z,2.70
2023-05-06T11:27:33.764Z,3.10
2023-05-06T11:30:06.185Z,2.50
2023-05-06T11:32:43.209Z,2.70
2023-05-06T11:35:29.693Z,2.80
2023-05-06T11:38:04.179Z,2.50
2023-05-06T11:40:34.816Z,2.60
2023-05-06T11:43:14.605Z,2.80
2023-05-06T11:45:46.664Z,3.10
2023-05-06T11:48:17.446Z,3.10
2023-05-06T11:50:47.611Z,2.60
2023-05-06T11:53:19.441Z,2.70
2023-05-06T11:55:54.283Z,2.40
2023-05-06T11:58:27.296Z,2.40
2023-05-06T12:00:59.489Z,2.30
2023-05-06T12:03:30.853Z,2.20
2023-05-06T12:06:01.395Z,2.70
2023-05-06T12:08:33.114Z,2.20
2023-05-06T12:11:06.606Z,2.20
2023-05-06T12:13:37.231Z,2.20
2023-05-06T12:16:09.252Z,2.10
2023-05-06T12:18:48.174Z,2.20
2023-05-06T12:21:23.998Z,1.90
2023-05-06T12:23:55.392Z,1.90
2023-05-06T12:26:26.957Z,2.00
2023-05-06T12:29:07.697Z,2.00
2023-05-06T12:31:37.063Z,1.90
2023-05-06T12:34:06.733Z,2.10
2023-05-06T12:36:40.645Z,1.90
2023-05-06T12:39:12.140Z,1.90
2023-05-06T12:41:43.438Z,2.20
2023-05-06T12:44:32.353Z,2.00
2023-05-06T12:47:03.422Z,1.90
2023-05-06T12:49:54.628Z,2.40
2023-05-06T12:52:28.185Z,2.00
2023-05-06T12:54:57.648Z,2.00
2023-05-06T12:57:27.066Z,2.30
2023-05-06T12:59:56.236Z,1.80
2023-05-06T13:02:25.620Z,2.00
2023-05-06T13:04:56.137Z,1.90
2023-05-06T13:07:25.406Z,1.90
2023-05-06T13:09:55.030Z,1.90
2023-05-06T13:12:25.230Z,2.00
2023-05-06T13:14:55.664Z,2.00
2023-05-06T13:17:26.008Z,1.80
2023-05-06T13:19:58.584Z,2.10
2023-05-06T13:22:28.053Z,2.20
2023-05-06T13:24:57.400Z,1.50
2023-05-06T13:27:29.353Z,1.90
2023-05-06T13:29:59.429Z,1.70
2023-05-06T13:32:28.849Z,1.70
2023-05-06T13:34:58.100Z,1.70
2023-05-06T13:37:27.689Z,1.80
2023-05-06T13:39:56.988Z,1.80
2023-05-06T13:42:26.418Z,1.70
2023-05-06T13:44:55.621Z,1.40
2023-05-06T13:47:26.351Z,1.50
2023-05-06T13:49:56.309Z,1.60
2023-05-06T13:52:25.462Z,1.80
2023-05-06T13:54:56.304Z,1.70
2023-05-06T13:57:25.927Z,1.70
2023-05-06T13:59:55.306Z,1.60
2023-05-06T14:02:26.769Z,1.30
2023-05-06T14:04:56.088Z,2.30
2023-05-06T14:07:25.416Z,1.60
2023-05-06T14:09:55.194Z,1.40
2023-05-06T14:12:25.388Z,1.40
2023-05-06T14:14:56.581Z,1.60
2023-05-06T14:17:25.908Z,1.30
2023-05-06T14:19:55.353Z,1.50
2023-05-06T14:22:25.863Z,1.50
2023-05-06T14:24:55.821Z,1.50
2023-05-06T14:27:26.662Z,1.50
2023-05-06T14:29:55.887Z,1.60
2023-05-06T14:32:25.653Z,1.70
2023-05-06T14:34:55.930Z,1.30
2023-05-06T14:37:25.992Z,1.50
2023-05-06T14:39:57.105Z,1.30
2023-05-06T14:42:26.603Z,1.20
2023-05-06T14:44:55.630Z,1.40
2023-05-06T14:47:26.034Z,1.40
2023-05-06T14:49:55.828Z,1.30
2023-05-06T14:52:25.817Z,1.40
2023-05-06T14:54:56.176Z,1.30
2023-05-06T14:57:25.805Z,1.20
2023-05-06T14:59:55.897Z,1.30
2023-05-06T15:02:26.560Z,1.30
2023-05-06T15:04:55.780Z,1.40
2023-05-06T15:07:26.989Z,1.20
2023-05-06T15:09:56.474Z,1.20
2023-05-06T15:12:26.001Z,1.50
2023-05-06T15:14:56.065Z,1.20
2023-05-06T15:17:27.037Z,1.30
2023-05-06T15:19:56.355Z,1.20
2023-05-06T15:22:26.603Z,1.60
2023-05-06T15:24:55.998Z,1.20
2023-05-06T15:27:26.837Z,1.20
2023-05-06T15:29:56.286Z,1.50
2023-05-06T15:32:27.411Z,1.00
2023-05-06T15:34:57.929Z,1.30
2023-05-06T15:37:27.084Z,1.50
2023-05-06T15:39:57.092Z,1.40
2023-05-06T15:42:26.679Z,1.30
2023-05-06T15:44:57.699Z,1.30
2023-05-06T15:47:26.865Z,1.60
2023-05-06T15:49:56.764Z,1.40
2023-05-06T15:52:26.232Z,1.50
2023-05-06T15:54:59.408Z,1.70
2023-05-06T15:57:31.237Z,1.10
2023-05-06T16:00:00.353Z,1.30
2023-05-06T16:02:29.692Z,1.20
2023-05-06T16:04:59.387Z,1.10
2023-05-06T16:07:29.314Z,1.20
2023-05-06T16:09:58.448Z,1.50
2023-05-06T16:12:31.527Z,1.50
2023-05-06T16:15:00.828Z,1.30
2023-05-06T16:17:30.608Z,1.40
2023-05-06T16:20:00.247Z,1.30
2023-05-06T16:22:29.390Z,1.60
2023-05-06T16:24:58.683Z,1.80
2023-05-06T16:27:28.423Z,1.50
2023-05-06T16:29:57.453Z,1.50
2023-05-06T16:32:27.044Z,1.40
2023-05-06T16:34:56.508Z,1.50
2023-05-06T16:37:27.921Z,1.40
2023-05-06T16:39:57.441Z,1.60
2023-05-06T16:42:26.703Z,1.50
2023-05-06T16:44:57.297Z,1.50
2023-05-06T16:47:28.008Z,1.60
2023-05-06T16:49:58.732Z,1.80
2023-05-06T16:52:30.058Z,1.60
2023-05-06T16:55:00.172Z,1.70
2023-05-06T16:57:29.665Z,1.80
2023-05-06T16:59:59.128Z,1.70
2023-05-06T17:02:28.495Z,1.50
2023-05-06T17:04:57.956Z,1.50
2023-05-06T17:07:27.058Z,1.90
2023-05-06T17:09:56.755Z,1.50
2023-05-06T17:12:27.632Z,1.40
2023-05-06T17:14:56.957Z,1.80
2023-05-06T17:17:28.450Z,1.70
2023-05-06T17:19:58.284Z,1.70
2023-05-06T17:22:27.876Z,1.60
2023-05-06T17:24:57.412Z,1.40
2023-05-06T17:27:27.057Z,1.80
2023-05-06T17:29:56.743Z,1.80
2023-05-06T17:32:27.034Z,1.80
2023-05-06T17:34:56.881Z,2.00
2023-05-06T17:37:28.244Z,1.80
2023-05-06T17:39:57.444Z,1.80
2023-05-06T17:42:27.308Z,2.00
2023-05-06T17:44:56.918Z,2.00
2023-05-06T17:47:29.336Z,2.00
2023-05-06T17:49:59.118Z,2.20
2023-05-06T17:52:28.224Z,2.20
2023-05-06T17:55:23.376Z,2.20
2023-05-06T17:57:47.560Z,2.60
2023-05-06T18:00:18.004Z,2.90
2023-05-06T18:02:47.638Z,3.00
2023-05-06T18:05:17.250Z,2.50
2023-05-06T18:07:48.999Z,2.70
2023-05-06T18:10:19.841Z,2.40
2023-05-06T18:12:54.162Z,2.30
2023-05-06T18:15:24.685Z,2.50
2023-05-06T18:17:55.138Z,2.80
2023-05-06T18:20:25.460Z,2.50
2023-05-06T18:22:58.091Z,2.20
2023-05-06T18:25:29.013Z,2.10
2023-05-06T18:27:58.851Z,2.20
2023-05-06T18:30:28.167Z,2.50
2023-05-06T18:32:57.649Z,2.00
2023-05-06T18:35:27.513Z,1.80
2023-05-06T18:37:58.229Z,2.30
2023-05-06T18:40:27.611Z,1.90
2023-05-06T18:42:58.204Z,1.90
2023-05-06T18:45:27.602Z,2.00
2023-05-06T18:47:57.121Z,2.30
2023-05-06T18:50:27.434Z,2.20
2023-05-06T18:52:59.464Z,2.10
2023-05-06T18:55:29.478Z,1.90
2023-05-06T18:57:58.714Z,2.10
2023-05-06T19:00:28.720Z,2.30
2023-05-06T19:02:58.451Z,2.10
2023-05-06T19:05:28.003Z,2.50
2023-05-06T19:07:58.432Z,2.60
2023-05-06T19:10:31.469Z,2.20
2023-05-06T19:13:03.937Z,2.40
2023-05-06T19:15:38.641Z,2.60
2023-05-06T19:18:09.777Z,2.70
2023-05-06T19:20:41.763Z,2.90
2023-05-06T19:23:12.184Z,2.90
2023-05-06T19:25:46.923Z,3.00
2023-05-06T19:28:29.325Z,3.10
2023-05-06T19:31:12.836Z,3.40
2023-05-06T19:34:06.350Z,3.20
2023-05-06T19:36:37.880Z,3.20
2023-05-06T19:39:16.373Z,3.50
2023-05-06T19:41:54.862Z,3.00
2023-05-06T19:44:28.461Z,2.90
2023-05-06T19:46:59.168Z,2.80
2023-05-06T19:49:31.942Z,2.80
2023-05-06T19:52:06.175Z,3.00
2023-05-06T19:54:35.795Z,3.20
2023-05-06T19:57:05.270Z,2.50
2023-05-06T19:59:35.501Z,2.70
2023-05-06T20:02:09.678Z,2.60
2023-05-06T20:04:40.236Z,2.80
2023-05-06T20:07:13.517Z,2.60
2023-05-06T20:09:43.349Z,2.80
2023-05-06T20:12:13.561Z,2.80
2023-05-06T20:14:44.866Z,2.70
2023-05-06T20:17:16.950Z,2.90
2023-05-06T20:19:50.103Z,3.00
2023-05-06T20:22:20.378Z,2.70
2023-05-06T20:24:52.777Z,2.70
2023-05-06T20:27:36.845Z,2.70
2023-05-06T20:30:09.870Z,3.00
2023-05-06T20:32:42.078Z,3.00
